createdAt,value
2023-05-03T00:01:43.519Z,99676.69
2023-05-03T00:04:10.364Z,99693.91
2023-05-03T00:06:37.150Z,99683.72
2023-05-03T00:09:03.941Z,99670.16
2023-05-03T00:11:30.871Z,99684.06
2023-05-03T00:13:57.627Z,99662.66
2023-05-03T00:16:24.442Z,99701.06
2023-05-03T00:18:51.254Z,99703.09
2023-05-03T00:21:18.035Z,99703.91
2023-05-03T00:23:44.781Z,99695.00
2023-05-03T00:26:11.724Z,99685.06
2023-05-03T00:28:38.584Z,99675.56
2023-05-03T00:31:09.779Z,99647.69
2023-05-03T00:33:39.886Z,99697.69
2023-05-03T00:36:13.799Z,99683.81
2023-05-03T00:38:41.153Z,99671.50
2023-05-03T00:41:09.660Z,99700.22
2023-05-03T00:43:37.994Z,99706.41
2023-05-03T00:46:16.179Z,99708.34
2023-05-03T00:48:44.730Z,99727.94
2023-05-03T00:51:11.586Z,99709.34
2023-05-03T00:53:38.492Z,99731.78
2023-05-03T00:56:07.067Z,99740.69
2023-05-03T00:58:35.963Z,99719.78
2023-05-03T01:01:02.943Z,99721.78
2023-05-03T01:03:29.766Z,99729.94
2023-05-03T01:06:24.032Z,99725.03
2023-05-03T01:09:29.491Z,99725.84
2023-05-03T01:12:07.027Z,99729.47
2023-05-03T01:15:11.891Z,99717.66
2023-05-03T01:17:49.644Z,99678.66
2023-05-03T01:20:18.094Z,99705.38
2023-05-03T01:22:44.770Z,99693.94
2023-05-03T01:25:12.829Z,99702.78
2023-05-03T01:27:40.153Z,99662.41
2023-05-03T01:30:11.432Z,99700.56
2023-05-03T01:32:46.191Z,99697.72
2023-05-03T01:35:37.594Z,99711.06
2023-05-03T01:38:04.576Z,99689.91
2023-05-03T01:40:32.353Z,99698.63
2023-05-03T01:42:59.165Z,99697.31
2023-05-03T01:45:26.662Z,99681.13
2023-05-03T01:47:53.446Z,99659.94
2023-05-03T01:50:20.540Z,99655.06
2023-05-03T01:52:47.523Z,99631.59
2023-05-03T01:55:14.250Z,99628.53
2023-05-03T01:57:40.979Z,99555.28
2023-05-03T02:00:09.382Z,99591.31
2023-05-03T02:02:36.230Z,99592.69
2023-05-03T02:05:03.658Z,99600.03
2023-05-03T02:07:30.659Z,99662.31
2023-05-03T02:09:57.402Z,99693.25
2023-05-03T02:12:24.172Z,99676.31
2023-05-03T02:14:51.642Z,99693.50
2023-05-03T02:17:19.078Z,99719.91
2023-05-03T02:19:46.199Z,99707.78
2023-05-03T02:22:13.203Z,99700.13
2023-05-03T02:24:40.160Z,99714.03
2023-05-03T02:27:07.072Z,99705.19
2023-05-03T02:29:34.426Z,99687.34
2023-05-03T02:32:01.171Z,99696.72
2023-05-03T02:34:28.117Z,99701.56
2023-05-03T02:36:55.126Z,99701.56
2023-05-03T02:39:21.912Z,99668.25
2023-05-03T02:41:48.647Z,99709.25
2023-05-03T02:44:15.520Z,99717.38
2023-05-03T02:46:42.512Z,99701.00
2023-05-03T02:49:09.683Z,99685.31
2023-05-03T02:51:36.615Z,99686.66
2023-05-03T02:54:03.640Z,99669.41
2023-05-03T02:56:30.493Z,99701.00
2023-05-03T02:58:57.336Z,99703.41
2023-05-03T03:01:24.215Z,99666.50
2023-05-03T03:03:51.081Z,99683.69
2023-05-03T03:06:18.091Z,99662.19
2023-05-03T03:08:44.816Z,99676.59
2023-05-03T03:11:11.547Z,99667.88
2023-05-03T03:13:40.046Z,99667.06
2023-05-03T03:16:10.252Z,99661.38
2023-05-03T03:18:37.759Z,99629.28
2023-05-03T03:21:04.704Z,99656.63
2023-05-03T03:23:31.436Z,99660.41
2023-05-03T03:25:58.239Z,99650.72
2023-05-03T03:28:25.128Z,99635.97
2023-05-03T03:30:52.085Z,99625.53
2023-05-03T03:33:18.889Z,99609.38
2023-05-03T03:35:45.966Z,99603.63
2023-05-03T03:38:12.753Z,99580.06
2023-05-03T03:40:39.644Z,99619.69
2023-05-03T03:43:06.491Z,99618.47
2023-05-03T03:45:33.241Z,99610.28
2023-05-03T03:48:00.547Z,99605.34
2023-05-03T03:50:27.277Z,99596.19
2023-05-03T03:52:54.002Z,99617.09
2023-05-03T03:55:20.900Z,99620.84
2023-05-03T03:57:47.677Z,99619.69
2023-05-03T04:00:14.875Z,99594.75
2023-05-03T04:02:42.230Z,99613.34
2023-05-03T04:05:09.202Z,99616.63
2023-05-03T04:07:36.194Z,99617.06
2023-05-03T04:10:03.344Z,99616.78
2023-05-03T04:12:30.638Z,99612.34
2023-05-03T04:14:57.438Z,99607.47
2023-05-03T04:17:24.569Z,99619.28
2023-05-03T04:19:52.468Z,99582.38
2023-05-03T04:22:19.207Z,99614.94
2023-05-03T04:24:46.146Z,99609.19
2023-05-03T04:27:14.915Z,99603.09
2023-05-03T04:29:42.263Z,99623.06
2023-05-03T04:32:09.998Z,99623.88
2023-05-03T04:34:36.775Z,99643.41
2023-05-03T04:37:05.328Z,99638.56
2023-05-03T04:39:32.362Z,99635.25
2023-05-03T04:41:59.078Z,99622.19
2023-05-03T04:44:26.159Z,99643.03
2023-05-03T04:46:53.184Z,99647.94
2023-05-03T04:49:19.985Z,99642.25
2023-05-03T04:51:46.713Z,99648.41
2023-05-03T04:54:13.671Z,99625.16
2023-05-03T04:56:40.486Z,99648.81
2023-05-03T04:59:07.696Z,99661.41
2023-05-03T05:01:34.539Z,99670.41
2023-05-03T05:04:01.319Z,99645.88
2023-05-03T05:06:28.215Z,99677.78
2023-05-03T05:08:55.110Z,99669.69
2023-05-03T05:11:22.402Z,99623.75
2023-05-03T05:13:49.392Z,99680.31
2023-05-03T05:16:16.602Z,99672.59
2023-05-03T05:18:43.545Z,99640.06
2023-05-03T05:21:10.337Z,99681.88
2023-05-03T05:23:37.246Z,99685.16
2023-05-03T05:26:04.824Z,99686.75
2023-05-03T05:28:32.431Z,99695.25
2023-05-03T05:30:59.569Z,99682.91
2023-05-03T05:33:26.488Z,99697.88
2023-05-03T05:35:53.250Z,99690.50
2023-05-03T05:38:20.201Z,99679.88
2023-05-03T05:40:46.953Z,99683.06
2023-05-03T05:43:13.717Z,99663.78
2023-05-03T05:45:40.623Z,99675.84
2023-05-03T05:48:08.372Z,99670.34
2023-05-03T05:50:35.385Z,99702.81
2023-05-03T05:53:02.210Z,99679.81
2023-05-03T05:55:29.035Z,99722.56
2023-05-03T05:57:55.925Z,99731.84
2023-05-03T06:00:22.907Z,99719.53
2023-05-03T06:02:50.026Z,99739.84
2023-05-03T06:05:17.114Z,99703.25
2023-05-03T06:07:44.100Z,99744.66
2023-05-03T06:10:11.508Z,99748.25
2023-05-03T06:12:38.328Z,99744.50
2023-05-03T06:15:06.001Z,99734.34
2023-05-03T06:17:33.048Z,99725.81
2023-05-03T06:19:59.920Z,99733.16
2023-05-03T06:22:26.841Z,99740.47
2023-05-03T06:24:55.654Z,99737.34
2023-05-03T06:27:22.443Z,99756.91
2023-05-03T06:29:50.153Z,99750.13
2023-05-03T06:32:18.953Z,99745.69
2023-05-03T06:34:46.351Z,99746.28
2023-05-03T06:39:39.866Z,99733.22
2023-05-03T06:42:07.879Z,99759.03
2023-05-03T06:44:34.735Z,99757.66
2023-05-03T06:47:01.780Z,99756.59
2023-05-03T06:49:28.521Z,99751.50
2023-05-03T06:51:55.278Z,99707.31
2023-05-03T06:54:22.515Z,99749.25
2023-05-03T06:56:49.264Z,99749.56
2023-05-03T06:59:16.745Z,99730.34
2023-05-03T07:01:43.720Z,99724.00
2023-05-03T07:04:10.690Z,99715.03
2023-05-03T07:06:44.739Z,99680.66
2023-05-03T07:09:15.847Z,99735.16
2023-05-03T07:11:49.430Z,99738.34
2023-05-03T07:14:16.677Z,99716.44
2023-05-03T07:16:43.585Z,99717.53
2023-05-03T07:19:10.316Z,99751.44
2023-05-03T07:21:37.266Z,99747.63
2023-05-03T07:24:04.198Z,99765.72
2023-05-03T07:26:30.955Z,99770.78
2023-05-03T07:28:57.764Z,99733.66
2023-05-03T07:31:25.186Z,99766.78
2023-05-03T07:33:52.191Z,99766.09
2023-05-03T07:36:19.154Z,99772.78
2023-05-03T07:38:46.568Z,99760.72
2023-05-03T07:41:13.298Z,99769.44
2023-05-03T07:43:40.251Z,99771.28
2023-05-03T07:46:07.089Z,99785.34
2023-05-03T07:48:33.832Z,99779.81
2023-05-03T07:51:00.872Z,99744.75
2023-05-03T07:53:27.855Z,99786.75
2023-05-03T07:55:55.668Z,99787.38
2023-05-03T07:58:31.292Z,99800.25
2023-05-03T08:01:06.056Z,99799.59
2023-05-03T08:03:33.189Z,99766.13
2023-05-03T08:06:00.156Z,99798.19
2023-05-03T08:08:27.956Z,99797.75
2023-05-03T08:10:54.847Z,99776.94
2023-05-03T08:13:22.870Z,99799.09
2023-05-03T08:15:50.475Z,99790.94
2023-05-03T08:18:17.421Z,99804.91
2023-05-03T08:20:45.144Z,99778.72
2023-05-03T08:23:12.047Z,99805.38
2023-05-03T08:25:38.970Z,99807.47
2023-05-03T08:28:07.250Z,99803.44
2023-05-03T08:30:35.625Z,99789.66
2023-05-03T08:33:02.619Z,99801.13
2023-05-03T08:35:29.459Z,99807.69
2023-05-03T08:37:56.284Z,99805.63
2023-05-03T08:40:24.175Z,99796.66
2023-05-03T08:42:51.317Z,99818.34
2023-05-03T08:45:18.241Z,99790.09
2023-05-03T08:47:45.757Z,99809.34
2023-05-03T08:50:13.527Z,99819.22
2023-05-03T08:52:42.718Z,99817.22
2023-05-03T08:55:10.018Z,99826.94
2023-05-03T08:57:37.529Z,99822.00
2023-05-03T09:00:06.747Z,99829.72
2023-05-03T09:02:35.313Z,99819.91
2023-05-03T09:05:02.388Z,99810.91
2023-05-03T09:07:29.247Z,99806.41
2023-05-03T09:09:57.373Z,99813.34
2023-05-03T09:12:35.184Z,99813.34
2023-05-03T09:15:03.223Z,99794.44
2023-05-03T09:17:30.145Z,99754.31
2023-05-03T09:19:57.707Z,99814.19
2023-05-03T09:22:32.312Z,99799.47
2023-05-03T09:25:00.284Z,99806.06
2023-05-03T09:27:27.430Z,99831.03
2023-05-03T09:29:54.585Z,99773.34
2023-05-03T09:32:25.436Z,99816.41
2023-05-03T09:34:52.264Z,99822.53
2023-05-03T09:37:19.216Z,99826.22
2023-05-03T09:39:46.875Z,99784.91
2023-05-03T09:42:17.580Z,99834.00
2023-05-03T09:44:48.893Z,99827.84
2023-05-03T09:47:16.075Z,99823.72
2023-05-03T09:49:42.910Z,99818.34
2023-05-03T09:52:09.975Z,99833.38
2023-05-03T09:54:37.126Z,99837.78
2023-05-03T09:57:05.756Z,99771.44
2023-05-03T09:59:33.799Z,99822.88
2023-05-03T10:02:03.301Z,99839.16
2023-05-03T10:04:36.340Z,99815.75
2023-05-03T10:07:04.760Z,99814.38
2023-05-03T10:09:40.175Z,99817.13
2023-05-03T10:12:12.578Z,99812.34
2023-05-03T10:14:43.670Z,99815.50
2023-05-03T10:17:17.116Z,99828.63
2023-05-03T10:19:54.744Z,99841.88
2023-05-03T10:22:21.541Z,99859.38
2023-05-03T10:24:57.514Z,99852.91
2023-05-03T10:27:25.859Z,99878.38
2023-05-03T10:29:54.023Z,99866.63
2023-05-03T10:32:33.702Z,99892.97
2023-05-03T10:35:04.069Z,99898.84
2023-05-03T10:37:32.283Z,99902.66
2023-05-03T10:40:12.602Z,99879.38
2023-05-03T10:42:40.529Z,99892.50
2023-05-03T10:45:09.081Z,99880.63
2023-05-03T10:47:36.099Z,99879.81
2023-05-03T10:50:11.814Z,99875.34
2023-05-03T10:52:38.981Z,99871.25
2023-05-03T10:55:22.468Z,99827.03
2023-05-03T10:57:50.183Z,99811.50
2023-05-03T11:00:23.859Z,99816.41
2023-05-03T11:03:04.086Z,99797.16
2023-05-03T11:05:31.310Z,99803.72
2023-05-03T11:08:20.697Z,99840.13
2023-05-03T11:10:48.914Z,99856.13
2023-05-03T11:13:15.916Z,99848.28
2023-05-03T11:15:42.910Z,99851.97
2023-05-03T11:18:11.321Z,99850.38
2023-05-03T11:20:38.321Z,99849.97
2023-05-03T11:23:05.774Z,99863.47
2023-05-03T11:25:33.551Z,99854.47
2023-05-03T11:28:04.446Z,99836.47
2023-05-03T11:30:33.602Z,99834.00
2023-05-03T11:33:00.519Z,99845.47
2023-05-03T11:35:29.181Z,99804.91
2023-05-03T11:37:56.521Z,99821.25
2023-05-03T11:40:23.446Z,99833.91
2023-05-03T11:42:58.882Z,99813.78
2023-05-03T11:45:27.232Z,99810.81
2023-05-03T11:47:54.048Z,99804.53
2023-05-03T11:50:27.773Z,99806.94
2023-05-03T11:52:54.998Z,99838.19
2023-05-03T11:55:21.879Z,99849.84
2023-05-03T11:57:48.760Z,99844.22
2023-05-03T12:00:17.923Z,99863.88
2023-05-03T12:02:45.302Z,99881.81
2023-05-03T12:05:14.060Z,99883.69
2023-05-03T12:07:41.491Z,99886.09
2023-05-03T12:10:24.356Z,99896.72
2023-05-03T12:12:57.541Z,99892.47
2023-05-03T12:15:37.173Z,99918.94
2023-05-03T12:18:13.135Z,99923.75
2023-05-03T12:23:11.146Z,99929.25
2023-05-03T12:25:39.428Z,99942.09
2023-05-03T12:28:19.541Z,99959.41
2023-05-03T12:30:47.621Z,99930.97
2023-05-03T12:33:16.846Z,99930.13
2023-05-03T12:35:47.476Z,99943.91
2023-05-03T12:38:16.698Z,99967.88
2023-05-03T12:40:45.779Z,99972.38
2023-05-03T12:43:13.124Z,99978.59
2023-05-03T12:45:41.118Z,99960.03
2023-05-03T12:48:09.421Z,99966.84
2023-05-03T12:50:38.634Z,99935.25
2023-05-03T12:53:09.313Z,99959.88
2023-05-03T12:55:41.710Z,99959.88
2023-05-03T13:00:48.320Z,99974.09
2023-05-03T13:03:32.781Z,99985.03
2023-05-03T13:06:01.074Z,99984.47
2023-05-03T13:08:35.002Z,99995.41
2023-05-03T13:11:02.296Z,100001.34
2023-05-03T13:13:29.412Z,99983.69
2023-05-03T13:15:56.149Z,100033.63
2023-05-03T13:18:23.143Z,100041.59
2023-05-03T13:20:50.683Z,100051.53
2023-05-03T13:23:17.395Z,100061.28
2023-05-03T13:25:44.806Z,100032.09
2023-05-03T13:28:11.631Z,100060.38
2023-05-03T13:30:38.361Z,100034.19
2023-05-03T13:33:05.126Z,100061.66
2023-05-03T13:35:32.562Z,100079.22
2023-05-03T13:37:59.399Z,100077.84
2023-05-03T13:40:26.257Z,100086.88
2023-05-03T13:42:53.556Z,100101.53
2023-05-03T13:45:20.474Z,100074.03
2023-05-03T13:48:10.883Z,100085.19
2023-05-03T13:50:34.276Z,100090.63
2023-05-03T13:53:01.590Z,100071.81
2023-05-03T13:55:28.767Z,100103.63
2023-05-03T13:57:55.746Z,100083.34
2023-05-03T14:00:23.179Z,100102.75
2023-05-03T14:02:51.429Z,100078.66
2023-05-03T14:05:20.086Z,100069.75
2023-05-03T14:07:46.912Z,100110.03
2023-05-03T14:10:13.900Z,100115.94
2023-05-03T14:12:41.210Z,100110.47
2023-05-03T14:15:08.491Z,100111.41
2023-05-03T14:17:35.265Z,100110.13
2023-05-03T14:20:02.484Z,100050.97
2023-05-03T14:22:29.422Z,100144.16
2023-05-03T14:24:56.755Z,100142.16
2023-05-03T14:27:23.579Z,100159.78
2023-05-03T14:29:51.034Z,100153.44
2023-05-03T14:32:18.123Z,100084.25
2023-05-03T14:34:45.107Z,100101.81
2023-05-03T14:37:12.042Z,100122.63
2023-05-03T14:39:39.190Z,100144.63
2023-05-03T14:42:06.222Z,100157.63
2023-05-03T14:44:33.092Z,100155.44
2023-05-03T14:46:59.868Z,100151.22
2023-05-03T14:49:26.792Z,100112.50
2023-05-03T14:51:53.647Z,100160.88
2023-05-03T14:54:20.694Z,100158.28
2023-05-03T14:56:48.181Z,100143.88
2023-05-03T14:59:15.137Z,100135.63
2023-05-03T15:01:42.012Z,100128.56
2023-05-03T15:04:10.837Z,100117.47
2023-05-03T15:06:39.692Z,100105.56
2023-05-03T15:09:08.395Z,100076.50
2023-05-03T15:11:35.367Z,100080.25
2023-05-03T15:14:02.207Z,100076.50
2023-05-03T15:16:29.052Z,100089.16
2023-05-03T15:18:55.947Z,100090.63
2023-05-03T15:21:23.239Z,100090.63
2023-05-03T15:23:50.110Z,100100.06
2023-05-03T15:26:17.158Z,100050.66
2023-05-03T15:28:43.940Z,100098.09
2023-05-03T15:31:13.091Z,100095.59
2023-05-03T15:33:43.157Z,100073.78
2023-05-03T15:36:13.744Z,100089.78
2023-05-03T15:38:40.825Z,100089.31
2023-05-03T15:41:08.450Z,100073.81
2023-05-03T15:43:35.298Z,100080.63
2023-05-03T15:46:02.296Z,100091.69
2023-05-03T15:48:29.221Z,100091.09
2023-05-03T15:50:56.113Z,100049.22
2023-05-03T15:53:23.056Z,100090.03
2023-05-03T15:55:50.010Z,100092.06
2023-05-03T15:58:19.113Z,100077.56
2023-05-03T16:00:46.979Z,100007.41
2023-05-03T16:03:15.336Z,100073.41
2023-05-03T16:05:42.196Z,100070.28
2023-05-03T16:08:08.983Z,100065.78
2023-05-03T16:10:35.967Z,100065.34
2023-05-03T16:13:03.701Z,99984.09
2023-05-03T16:15:31.249Z,99937.19
2023-05-03T16:17:58.299Z,99961.28
2023-05-03T16:20:25.030Z,99985.34
2023-05-03T16:22:53.121Z,99997.13
2023-05-03T16:25:20.067Z,99999.44
2023-05-03T16:27:46.876Z,100064.91
2023-05-03T16:30:13.916Z,100112.81
2023-05-03T16:32:40.994Z,100104.13
2023-05-03T16:35:08.464Z,100080.28
2023-05-03T16:37:37.759Z,100109.81
2023-05-03T16:40:10.275Z,100067.41
2023-05-03T16:42:41.057Z,100051.16
2023-05-03T16:45:10.403Z,100102.88
2023-05-03T16:47:38.016Z,100075.22
2023-05-03T16:50:08.133Z,100087.78
2023-05-03T16:52:42.582Z,100066.75
2023-05-03T16:55:10.979Z,99999.69
2023-05-03T16:57:38.089Z,100070.69
2023-05-03T17:00:09.280Z,100097.06
2023-05-03T17:02:40.232Z,100069.13
2023-05-03T17:05:08.569Z,100088.19
2023-05-03T17:07:35.809Z,100076.63
2023-05-03T17:10:03.590Z,100064.78
2023-05-03T17:12:31.362Z,100033.19
2023-05-03T17:14:58.206Z,100103.44
2023-05-03T17:17:25.008Z,100053.28
2023-05-03T17:19:52.565Z,100081.28
2023-05-03T17:22:19.359Z,100107.00
2023-05-03T17:24:46.163Z,100100.81
2023-05-03T17:27:13.043Z,100094.19
2023-05-03T17:29:39.786Z,100094.06
2023-05-03T17:32:06.644Z,100120.38
2023-05-03T17:34:33.452Z,100098.91
2023-05-03T17:37:00.203Z,100110.19
2023-05-03T17:39:28.536Z,100122.78
2023-05-03T17:41:55.464Z,100106.72
2023-05-03T17:44:23.095Z,100109.56
2023-05-03T17:46:50.413Z,100139.56
2023-05-03T17:49:17.370Z,100117.03
2023-05-03T17:51:44.103Z,100133.44
2023-05-03T17:54:10.978Z,100135.66
2023-05-03T17:56:37.882Z,100149.78
2023-05-03T17:59:05.062Z,100137.47
2023-05-03T18:01:31.837Z,100107.97
2023-05-03T18:03:58.864Z,100136.81
2023-05-03T18:06:26.828Z,100129.81
2023-05-03T18:08:53.656Z,100140.50
2023-05-03T18:11:20.586Z,100127.88
2023-05-03T18:13:47.312Z,100124.91
2023-05-03T18:16:14.104Z,100133.88
2023-05-03T18:18:41.059Z,100128.03
2023-05-03T18:21:08.214Z,100128.84
2023-05-03T18:23:35.432Z,100126.69
2023-05-03T18:26:02.298Z,100132.69
2023-05-03T18:28:29.167Z,100142.97
2023-05-03T18:30:56.140Z,100137.16
2023-05-03T18:33:23.216Z,100153.28
2023-05-03T18:35:53.780Z,100141.16
2023-05-03T18:38:21.821Z,100119.28
2023-05-03T18:40:49.404Z,100040.50
2023-05-03T18:43:16.188Z,100142.81
2023-05-03T18:45:42.957Z,100070.25
2023-05-03T18:48:09.911Z,100153.44
2023-05-03T18:50:38.665Z,100056.59
2023-05-03T18:53:06.404Z,100148.25
2023-05-03T18:55:33.362Z,100150.09
2023-05-03T18:58:00.742Z,100134.50
2023-05-03T19:00:28.873Z,100162.00
2023-05-03T19:02:55.706Z,100156.78
2023-05-03T19:05:22.502Z,100147.97
2023-05-03T19:07:49.236Z,100165.53
2023-05-03T19:10:16.572Z,100171.81
2023-05-03T19:12:44.741Z,100144.34
2023-05-03T19:15:11.916Z,100158.03
2023-05-03T19:17:42.063Z,100191.69
2023-05-03T19:20:10.536Z,100176.16
2023-05-03T19:22:37.688Z,100183.44
2023-05-03T19:25:05.519Z,100176.97
2023-05-03T19:27:32.430Z,100203.00
2023-05-03T19:29:59.326Z,100205.66
2023-05-03T19:32:26.186Z,100207.13
2023-05-03T19:34:52.938Z,100211.59
2023-05-03T19:37:19.824Z,100202.63
2023-05-03T19:39:46.678Z,100217.53
2023-05-03T19:42:13.588Z,100212.72
2023-05-03T19:44:40.389Z,100214.34
2023-05-03T19:47:07.372Z,100219.34
2023-05-03T19:49:34.187Z,100228.97
2023-05-03T19:52:02.246Z,100217.28
2023-05-03T19:54:29.718Z,100210.59
2023-05-03T19:56:56.499Z,100221.38
2023-05-03T19:59:23.587Z,100220.66
2023-05-03T20:01:50.558Z,100246.56
2023-05-03T20:04:17.541Z,100234.28
2023-05-03T20:06:44.570Z,100184.28
2023-05-03T20:09:11.360Z,100250.75
2023-05-03T20:11:38.076Z,100246.19
2023-05-03T20:14:04.972Z,100242.41
2023-05-03T20:16:33.677Z,100263.44
2023-05-03T20:19:01.287Z,100259.47
2023-05-03T20:21:28.659Z,100279.75
2023-05-03T20:23:55.904Z,100280.56
2023-05-03T20:26:22.752Z,100280.56
2023-05-03T20:28:49.789Z,100280.56
2023-05-03T20:31:17.434Z,100280.56
2023-05-03T20:33:44.212Z,100287.41
2023-05-03T20:36:13.315Z,100259.06
2023-05-03T20:38:40.199Z,100296.44
2023-05-03T20:41:07.001Z,100255.81
2023-05-03T20:43:33.858Z,100261.78
2023-05-03T20:46:00.652Z,100289.34
2023-05-03T20:48:27.756Z,100317.13
2023-05-03T20:50:54.665Z,100312.16
2023-05-03T20:53:21.713Z,100316.63
2023-05-03T20:55:58.949Z,100314.31
2023-05-03T20:58:25.945Z,100315.81
2023-05-03T21:00:53.811Z,100305.22
2023-05-03T21:03:24.148Z,100326.94
2023-05-03T21:05:53.488Z,100322.78
2023-05-03T21:08:20.240Z,100330.13
2023-05-03T21:10:47.258Z,100334.47
2023-05-03T21:13:14.150Z,100316.53
2023-05-03T21:15:41.112Z,100339.44
2023-05-03T21:18:08.168Z,100342.75
2023-05-03T21:20:35.523Z,100343.78
2023-05-03T21:23:02.810Z,100337.63
2023-05-03T21:25:29.684Z,100343.28
2023-05-03T21:27:56.382Z,100319.38
2023-05-03T21:30:24.037Z,100327.97
2023-05-03T21:32:51.175Z,100292.34
2023-05-03T21:35:18.364Z,100366.53
2023-05-03T21:37:46.580Z,100366.03
2023-05-03T21:40:16.889Z,100357.56
2023-05-03T21:42:44.293Z,100364.88
2023-05-03T21:45:12.424Z,100374.19
2023-05-03T21:47:39.370Z,100368.06
2023-05-03T21:50:06.925Z,100339.81
2023-05-03T21:52:34.256Z,100353.75
2023-05-03T21:55:01.220Z,100375.50
2023-05-03T21:57:29.180Z,100369.03
2023-05-03T21:59:57.050Z,100356.41
2023-05-03T22:02:24.315Z,100376.16
2023-05-03T22:04:51.151Z,100379.13
2023-05-03T22:07:17.971Z,100383.97
2023-05-03T22:09:48.325Z,100337.63
2023-05-03T22:14:45.421Z,100370.50
2023-05-03T22:17:12.210Z,100384.44
2023-05-03T22:19:39.603Z,100375.13
2023-05-03T22:22:06.644Z,100366.88
2023-05-03T22:24:33.477Z,100307.63
2023-05-03T22:27:00.400Z,100374.97
2023-05-03T22:29:27.334Z,100383.47
2023-05-03T22:31:54.458Z,100381.47
2023-05-03T22:34:21.306Z,100383.00
2023-05-03T22:36:48.105Z,100392.44
2023-05-03T22:39:15.942Z,100313.06
2023-05-03T22:41:42.828Z,100387.94
2023-05-03T22:44:09.583Z,100341.31
2023-05-03T22:46:36.464Z,100388.81
2023-05-03T22:49:03.317Z,100399.75
2023-05-03T22:51:30.128Z,100400.13
2023-05-03T22:53:56.980Z,100403.41
2023-05-03T22:56:23.714Z,100381.84
2023-05-03T22:58:50.457Z,100405.94
2023-05-03T23:01:17.517Z,100368.88
2023-05-03T23:03:44.523Z,100402.88
2023-05-03T23:06:11.751Z,100401.25
2023-05-03T23:08:39.876Z,100402.88
2023-05-03T23:11:06.638Z,100394.47
2023-05-03T23:13:33.414Z,100386.66
2023-05-03T23:16:02.092Z,100380.16
2023-05-03T23:18:30.054Z,100412.16
2023-05-03T23:20:56.777Z,100412.16
2023-05-03T23:23:23.949Z,100416.78
2023-05-03T23:25:50.764Z,100413.28
2023-05-03T23:28:17.595Z,100415.78
2023-05-03T23:30:45.304Z,100420.44
2023-05-03T23:33:12.710Z,100415.47
2023-05-03T23:35:41.002Z,100419.91
2023-05-03T23:38:07.915Z,100426.41
2023-05-03T23:40:34.754Z,100428.09
2023-05-03T23:43:01.548Z,100420.44
2023-05-03T23:45:28.442Z,100441.28
2023-05-03T23:47:55.210Z,100433.78
2023-05-03T23:50:22.038Z,100385.03
2023-05-03T23:52:49.414Z,100446.97
2023-05-03T23:55:16.216Z,100412.44
2023-05-03T23:57:42.948Z,100454.13
